Time;durP1;ratioP1;P1;durP2;ratioP2;P2;SDS_P1;SDS_P2;PMS_P1;PMS_P2;Temp;Humidity;BMP_temperature;BMP_pressure;BME280_temperature;BME280_humidity;BME280_pressure;Samples;Min_cycle;Max_cycle;Signal;HPM_P1;HPM_P2
2023/06/24 00:01:31;;;;;;;3.03;2.70;;;;;;;18.49;80.23;102344.91;5052075;28;20021;-84
2023/06/24 00:03:57;;;;;;;2.95;2.45;;;;;;;18.48;79.96;102345.78;5052541;28;20029;-83
2023/06/24 00:06:25;;;;;;;2.77;2.57;;;;;;;18.42;80.11;102341.56;5051168;28;20480;-83
2023/06/24 00:08:52;;;;;;;3.05;2.75;;;;;;;18.37;80.39;102349.56;5034399;28;20032;-83
2023/06/24 00:11:18;;;;;;;3.33;2.65;;;;;;;18.36;80.61;102344.34;5051872;28;20112;-83
2023/06/24 00:13:44;;;;;;;2.90;2.60;;;;;;;18.30;80.15;102347.97;5051628;28;20480;-84
2023/06/24 00:16:10;;;;;;;2.70;2.50;;;;;;;18.27;80.44;102344.56;5052140;28;20036;-83
2023/06/24 00:18:37;;;;;;;3.25;2.78;;;;;;;18.24;80.56;102350.72;5055038;28;20392;-84
2023/06/24 00:21:03;;;;;;;3.30;2.67;;;;;;;18.20;80.96;102347.31;5055901;28;20075;-84
2023/06/24 00:23:33;;;;;;;2.70;2.42;;;;;;;18.18;81.17;102353.53;5055795;28;20092;-84
2023/06/24 00:25:58;;;;;;;4.25;2.78;;;;;;;18.16;81.17;102357.94;5056003;28;20253;-84
2023/06/24 00:28:23;;;;;;;3.93;3.00;;;;;;;18.13;81.19;102353.63;5055310;28;20032;-84
2023/06/24 00:30:49;;;;;;;4.77;3.00;;;;;;;18.12;81.21;102357.16;5056101;28;20113;-84
2023/06/24 00:33:16;;;;;;;3.73;2.90;;;;;;;18.09;81.29;102361.63;5055207;28;20039;-84
2023/06/24 00:35:43;;;;;;;3.40;2.80;;;;;;;18.06;81.45;102360.78;5055602;28;20284;-84
2023/06/24 00:38:08;;;;;;;;;;;;;;;18.04;81.64;102359.94;5055972;28;20107;-84
2023/06/24 00:40:34;;;;;;;3.80;3.00;;;;;;;18.01;81.67;102361.78;5055201;28;20384;-84
2023/06/24 00:43:01;;;;;;;4.07;3.10;;;;;;;17.99;81.49;102366.22;5055531;28;20481;-84
2023/06/24 00:45:27;;;;;;;3.88;3.00;;;;;;;17.94;81.46;102361.03;5055617;28;20017;-84
2023/06/24 00:47:54;;;;;;;4.30;3.30;;;;;;;17.90;81.59;102367.25;5055140;28;20414;-84
2023/06/24 00:50:19;;;;;;;3.78;2.95;;;;;;;17.87;81.80;102362.06;5055455;28;20048;-84
2023/06/24 00:52:45;;;;;;;5.03;3.20;;;;;;;17.85;81.81;102374.38;5055925;28;20469;-84
2023/06/24 00:55:14;;;;;;;3.78;3.03;;;;;;;17.78;81.96;102357.03;5054730;28;20021;-84
2023/06/24 00:57:51;;;;;;;4.63;3.38;;;;;;;17.78;82.08;102370.16;5055659;28;20039;-84
2023/06/24 01:00:21;;;;;;;4.43;3.20;;;;;;;17.73;82.21;102365.00;5055286;28;20104;-84
2023/06/24 01:02:48;;;;;;;4.40;3.17;;;;;;;17.68;82.35;102354.56;5054564;28;20032;-84
2023/06/24 01:05:14;;;;;;;3.33;2.90;;;;;;;17.67;82.51;102362.50;5054884;28;20100;-84
2023/06/24 01:07:41;;;;;;;3.58;2.92;;;;;;;17.62;82.65;102359.09;5055789;28;20105;-84
2023/06/24 01:10:07;;;;;;;;;;;;;;;17.59;82.61;102352.13;5054635;28;20025;-84
2023/06/24 01:12:38;;;;;;;4.15;3.08;;;;;;;17.55;82.72;102347.88;5055675;28;19935;-84
2023/06/24 01:15:07;;;;;;;3.75;2.90;;;;;;;17.51;82.80;102347.03;5055218;28;20025;-84
2023/06/24 01:17:53;;;;;;;4.03;3.00;;;;;;;17.47;82.74;102350.66;5054554;28;20097;-84
2023/06/24 01:20:52;;;;;;;3.92;3.05;;;;;;;17.45;82.75;102342.78;5054671;28;20079;-84
2023/06/24 01:23:42;;;;;;;4.95;3.33;;;;;;;17.41;82.71;102340.25;5030002;28;20041;-84
2023/06/24 01:26:49;;;;;;;4.30;3.10;;;;;;;17.38;83.07;102340.34;5054974;28;20083;-85
2023/06/24 01:29:36;;;;;;;3.63;2.92;;;;;;;17.33;83.05;102345.69;5054216;28;20381;-84
2023/06/24 01:32:20;;;;;;;4.20;3.00;;;;;;;17.30;83.23;102332.63;5055008;28;20029;-84
2023/06/24 01:34:55;;;;;;;3.22;2.90;;;;;;;17.25;83.25;102335.34;5054711;28;20094;-84
2023/06/24 01:37:42;;;;;;;4.47;3.13;;;;;;;17.21;83.46;102336.28;5054150;28;20035;-84
2023/06/24 01:40:12;;;;;;;3.72;2.90;;;;;;;17.18;83.40;102332.84;5055014;28;20017;-83
2023/06/24 01:42:40;;;;;;;4.68;3.20;;;;;;;17.17;83.38;102337.22;5054455;28;20484;-84
2023/06/24 01:45:09;;;;;;;3.92;3.17;;;;;;;17.14;83.52;102332.91;5053574;28;20104;-84
2023/06/24 01:47:36;;;;;;;4.15;3.00;;;;;;;17.13;83.63;102335.56;5054633;28;20033;-84
2023/06/24 01:50:03;;;;;;;3.63;2.97;;;;;;;17.06;83.60;102323.44;5054622;28;20021;-84
2023/06/24 01:52:30;;;;;;;3.63;2.80;;;;;;;17.05;83.87;102330.47;5053649;28;20033;-84
2023/06/24 01:54:59;;;;;;;3.83;2.83;;;;;;;16.98;83.89;102323.59;5054502;28;20378;-84
2023/06/24 01:57:27;;;;;;;4.68;2.97;;;;;;;16.95;83.85;102326.28;5054161;28;20025;-84
2023/06/24 01:59:55;;;;;;;4.20;2.95;;;;;;;16.94;83.93;102328.03;5053802;28;20044;-84
2023/06/24 02:02:21;;;;;;;4.13;3.00;;;;;;;16.95;84.00;102327.13;5054169;28;20096;-84
2023/06/24 02:04:48;;;;;;;3.38;2.78;;;;;;;16.90;84.05;102330.69;5052741;28;20029;-84
2023/06/24 02:07:15;;;;;;;3.92;2.90;;;;;;;16.88;84.24;102337.75;5053883;28;20040;-84
2023/06/24 02:09:43;;;;;;;3.15;2.70;;;;;;;16.85;84.27;102328.16;5054199;28;20039;-84
2023/06/24 02:12:09;;;;;;;3.63;2.78;;;;;;;16.81;84.58;102323.88;5053074;28;20025;-84
2023/06/24 02:14:36;;;;;;;2.83;2.50;;;;;;;16.77;84.22;102316.94;5053798;28;20028;-84
2023/06/24 02:17:04;;;;;;;2.97;2.60;;;;;;;16.70;84.56;102310.94;5053912;28;20127;-84
2023/06/24 02:19:31;;;;;;;3.20;2.58;;;;;;;16.72;84.35;102327.53;5052907;28;20539;-84
2023/06/24 02:21:59;;;;;;;3.30;2.63;;;;;;;16.66;84.53;102328.50;5053694;28;20469;-84
2023/06/24 02:24:26;;;;;;;3.50;2.50;;;;;;;16.65;84.57;102324.13;5053430;28;20052;-83
2023/06/24 02:26:53;;;;;;;2.92;2.60;;;;;;;16.62;84.50;102326.81;5053027;28;20412;-84
2023/06/24 02:29:19;;;;;;;;;;;;;;;16.59;84.68;102328.63;5053914;28;20028;-84
2023/06/24 02:31:44;;;;;;;3.28;2.65;;;;;;;16.54;84.72;102327.84;5053744;28;19913;-84
2023/06/24 02:34:09;;;;;;;3.23;2.80;;;;;;;16.47;84.59;102319.22;5052613;28;20378;-85
2023/06/24 02:36:35;;;;;;;3.53;2.67;;;;;;;16.46;84.86;102318.34;5053212;28;20039;-84
2023/06/24 02:39:06;;;;;;;3.40;2.67;;;;;;;16.42;84.65;102321.91;5053718;28;20074;-84
2023/06/24 02:41:32;;;;;;;3.08;2.70;;;;;;;16.40;84.90;102328.94;5051756;28;20025;-84
2023/06/24 02:43:57;;;;;;;3.90;2.80;;;;;;;16.38;84.86;102335.09;5053515;28;20045;-84
2023/06/24 02:46:23;;;;;;;3.13;2.70;;;;;;;16.28;85.31;102316.03;5053393;28;20100;-84
2023/06/24 02:48:50;;;;;;;3.78;2.90;;;;;;;16.27;85.10;102323.00;5052724;28;20029;-84
2023/06/24 02:51:16;;;;;;;3.78;3.00;;;;;;;16.17;85.37;102317.06;5053171;28;20078;-84
2023/06/24 02:53:42;;;;;;;3.93;2.90;;;;;;;16.21;85.46;102320.50;5053241;28;20033;-84
2023/06/24 02:56:09;;;;;;;4.72;2.88;;;;;;;16.18;85.34;102323.16;5051798;28;20441;-84
2023/06/24 02:58:38;;;;;;;3.78;2.78;;;;;;;16.14;85.50;102332.81;5053238;28;20025;-84
2023/06/24 03:01:03;;;;;;;3.45;2.90;;;;;;;16.11;85.78;102338.09;5052546;28;20064;-84
2023/06/24 03:03:29;;;;;;;3.20;2.73;;;;;;;16.06;85.79;102338.16;5053152;28;20057;-84
2023/06/24 03:05:59;;;;;;;3.10;2.60;;;;;;;16.03;86.02;102334.72;5052420;28;20120;-84
2023/06/24 03:08:28;;;;;;;3.33;2.67;;;;;;;16.02;86.14;102348.69;5051636;28;20021;-84
2023/06/24 03:10:58;;;;;;;3.33;2.63;;;;;;;15.96;86.11;102344.41;5053191;28;20025;-84
2023/06/24 03:13:26;;;;;;;3.42;2.80;;;;;;;15.94;86.28;102334.84;5052963;28;20075;-84
2023/06/24 03:15:51;;;;;;;3.58;2.83;;;;;;;15.92;86.15;102339.25;5052208;28;20107;-84
2023/06/24 03:18:17;;;;;;;4.00;3.10;;;;;;;15.97;86.35;102342.69;5052259;28;20166;-84
2023/06/24 03:20:43;;;;;;;4.30;3.22;;;;;;;15.96;86.48;102339.19;5052817;28;20515;-84
2023/06/24 03:23:09;;;;;;;4.00;2.77;;;;;;;15.96;86.44;102347.03;5052163;28;20028;-84
2023/06/24 03:25:35;;;;;;;4.07;3.07;;;;;;;15.95;86.61;102341.84;5052783;28;20032;-84
2023/06/24 03:28:03;;;;;;;3.72;2.70;;;;;;;15.89;86.58;102332.31;5052751;28;20020;-85
2023/06/24 03:30:29;;;;;;;4.20;3.15;;;;;;;15.91;86.70;102335.78;5051750;28;20424;-84
2023/06/24 03:32:54;;;;;;;3.93;3.03;;;;;;;15.87;86.63;102329.72;5052976;28;20025;-84
2023/06/24 03:35:19;;;;;;;3.93;2.97;;;;;;;15.85;86.95;102331.50;5052159;28;20469;-84
2023/06/24 03:37:45;;;;;;;3.87;2.67;;;;;;;15.84;86.75;102336.69;5051682;28;20041;-84
2023/06/24 03:40:11;;;;;;;3.17;2.70;;;;;;;15.84;87.10;102328.84;5052418;28;20025;-84
2023/06/24 03:42:36;;;;;;;3.47;2.65;;;;;;;15.83;87.27;102340.19;5052799;28;20116;-84
2023/06/24 03:45:06;;;;;;;3.47;2.40;;;;;;;15.80;87.50;102342.88;5051589;28;20117;-84
2023/06/24 03:47:31;;;;;;;2.88;2.53;;;;;;;15.75;87.65;102332.47;5052531;28;20542;-84
2023/06/24 03:49:56;;;;;;;2.57;2.23;;;;;;;15.75;87.68;102333.31;5052636;28;20025;-84
2023/06/24 03:52:22;;;;;;;3.17;2.50;;;;;;;15.73;87.66;102334.22;5052104;28;20473;-84
2023/06/24 03:54:47;;;;;;;3.17;2.70;;;;;;;15.70;87.77;102329.03;5056728;28;20104;-84
2023/06/24 03:57:13;;;;;;;4.03;2.80;;;;;;;15.70;87.47;102340.38;5055536;28;20021;-84
2023/06/24 03:59:38;;;;;;;4.03;2.90;;;;;;;15.78;87.64;102353.34;5056951;28;20013;-84
2023/06/24 04:02:07;;;;;;;3.47;2.77;;;;;;;15.78;87.75;102352.50;5056488;28;20267;-84
2023/06/24 04:04:34;;;;;;;3.13;2.63;;;;;;;15.74;87.65;102343.81;5055599;28;20476;-84
2023/06/24 04:06:59;;;;;;;3.50;2.80;;;;;;;15.76;87.83;102352.53;5056496;28;20021;-84
2023/06/24 04:09:24;;;;;;;2.83;2.47;;;;;;;15.75;88.04;102343.78;5056141;28;20242;-84
2023/06/24 04:11:50;;;;;;;2.87;2.40;;;;;;;15.72;88.19;102346.44;5055672;28;20021;-84
2023/06/24 04:14:15;;;;;;;2.80;2.50;;;;;;;15.68;88.19;102344.75;5056095;28;20021;-84
2023/06/24 04:16:40;;;;;;;3.20;2.70;;;;;;;15.72;87.95;102353.44;5056280;28;20481;-84
2023/06/24 04:19:06;;;;;;;2.87;2.50;;;;;;;15.72;87.97;102350.81;5055289;28;20025;-84
2023/06/24 04:21:31;;;;;;;3.53;2.80;;;;;;;15.73;88.20;102352.56;5056187;28;20017;-84
2023/06/24 04:23:56;;;;;;;3.23;2.60;;;;;;;15.71;88.33;102351.69;5056077;28;20036;-84
2023/06/24 04:26:22;;;;;;;2.50;2.30;;;;;;;15.74;88.41;102356.91;5055061;28;20025;-84
2023/06/24 04:28:47;;;;;;;2.63;2.23;;;;;;;15.74;88.71;102355.13;5055975;28;20021;-84
2023/06/24 04:31:16;;;;;;;2.30;2.10;;;;;;;15.76;88.96;102357.75;5055565;28;20037;-84
2023/06/24 04:33:41;;;;;;;2.60;2.10;;;;;;;15.77;89.08;102350.75;5055283;28;20063;-84
2023/06/24 04:36:06;;;;;;;2.47;2.13;;;;;;;15.73;89.54;102345.56;5055198;28;20068;-84
2023/06/24 04:38:32;;;;;;;2.30;2.10;;;;;;;15.74;89.24;102351.69;5055578;28;20032;-84
2023/06/24 04:40:59;;;;;;;2.40;2.20;;;;;;;15.79;90.74;102349.84;5055384;28;20155;-84
2023/06/24 04:43:24;;;;;;;2.42;2.20;;;;;;;15.78;89.72;102350.72;5055300;28;20041;-85
2023/06/24 04:45:50;;;;;;;2.27;2.07;;;;;;;15.80;91.10;102351.59;5055982;28;20378;-84
2023/06/24 04:48:18;;;;;;;1.77;1.67;;;;;;;15.82;90.45;102349.81;5054574;28;20028;-84
2023/06/24 04:50:43;;;;;;;1.85;1.75;;;;;;;15.83;90.83;102351.56;5056064;28;20354;-85
2023/06/24 04:53:08;;;;;;;1.87;1.73;;;;;;;15.86;91.56;102363.75;5055368;28;20047;-85
2023/06/24 04:55:34;;;;;;;2.40;2.20;;;;;;;15.90;90.93;102357.59;5054983;28;20029;-85
2023/06/24 04:57:59;;;;;;;2.47;2.03;;;;;;;15.96;90.29;102361.88;5055762;28;20029;-85
2023/06/24 05:00:24;;;;;;;2.80;2.20;;;;;;;16.00;91.18;102360.94;5054628;28;20909;-84
2023/06/24 05:02:50;;;;;;;2.30;2.10;;;;;;;16.06;90.24;102348.63;5055180;28;20029;-84
2023/06/24 05:05:15;;;;;;;4.00;2.50;;;;;;;16.10;91.69;102349.44;5053391;28;20060;-84
2023/06/24 05:07:41;;;;;;;3.07;2.43;;;;;;;16.15;90.38;102359.88;5054922;28;20104;-85
2023/06/24 05:10:06;;;;;;;2.87;2.37;;;;;;;16.21;90.20;102358.00;5055203;28;20492;-85
2023/06/24 05:12:32;;;;;;;2.53;2.20;;;;;;;16.29;89.37;102357.06;5055579;28;20473;-85
2023/06/24 05:14:57;;;;;;;2.50;2.07;;;;;;;16.38;89.13;102356.06;5053607;28;20489;-85
2023/06/24 05:17:23;;;;;;;2.60;2.40;;;;;;;16.43;89.26;102355.09;5054937;28;20029;-85
2023/06/24 05:19:48;;;;;;;2.90;1.80;;;;;;;16.50;89.15;102354.09;5055194;28;20017;-85
2023/06/24 05:22:14;;;;;;;2.37;2.10;;;;;;;16.59;88.63;102357.44;5054111;28;20029;-84
2023/06/24 05:24:41;;;;;;;3.17;2.43;;;;;;;16.63;88.98;102349.50;5054935;28;20472;-85
2023/06/24 05:27:07;;;;;;;2.75;2.38;;;;;;;16.72;88.74;102351.13;5054841;28;20083;-84
2023/06/24 05:29:33;;;;;;;2.42;2.20;;;;;;;16.78;89.67;102348.38;5054479;28;20028;-86
2023/06/24 05:31:59;;;;;;;6.63;3.90;;;;;;;16.81;88.66;102350.94;5054774;28;20055;-85
2023/06/24 05:34:25;;;;;;;4.47;3.15;;;;;;;16.88;88.10;102356.97;5054476;28;20025;-85
2023/06/24 05:36:50;;;;;;;5.00;3.10;;;;;;;16.93;88.52;102362.13;5053877;28;20496;-84
2023/06/24 05:39:15;;;;;;;5.03;3.00;;;;;;;16.96;88.22;102360.34;5054532;28;20091;-84
2023/06/24 05:41:40;;;;;;;4.67;3.10;;;;;;;17.01;87.33;102370.72;5054492;28;20057;-86
2023/06/24 05:44:08;;;;;;;3.87;2.73;;;;;;;17.05;87.09;102363.72;5053640;28;20068;-84
2023/06/24 05:46:34;;;;;;;3.83;2.67;;;;;;;17.09;86.53;102361.00;5054713;28;20025;-85
2023/06/24 05:48:59;;;;;;;6.93;3.63;;;;;;;17.16;85.64;102366.13;5054732;28;20021;-86
2023/06/24 05:51:28;;;;;;;4.50;3.00;;;;;;;17.20;85.95;102363.41;5053523;28;20082;-86
2023/06/24 05:53:53;;;;;;;4.95;3.10;;;;;;;17.23;86.09;102368.59;5054328;28;20029;-85
2023/06/24 05:56:21;;;;;;;5.97;3.87;;;;;;;17.26;85.32;102359.78;5054350;28;20032;-86
2023/06/24 05:58:47;;;;;;;5.57;3.70;;;;;;;17.32;85.21;102364.94;5053509;28;20013;-86
2023/06/24 06:01:13;;;;;;;7.00;3.93;;;;;;;17.40;85.46;102360.41;5054159;28;20036;-85
2023/06/24 06:03:38;;;;;;;5.90;3.70;;;;;;;18.53;85.99;102354.44;5054586;28;20029;-86
2023/06/24 06:06:04;;;;;;;4.10;3.03;;;;;;;20.50;83.63;102357.63;5053564;28;20059;-86
2023/06/24 06:08:29;;;;;;;5.90;3.70;;;;;;;22.30;75.45;102361.66;5053998;28;20060;-86
2023/06/24 06:10:55;;;;;;;3.93;2.83;;;;;;;23.59;74.42;102364.97;5053813;28;20021;-85
2023/06/24 06:13:20;;;;;;;3.63;2.73;;;;;;;24.91;71.79;102373.66;5054177;28;20456;-86
2023/06/24 06:15:45;;;;;;;3.73;2.73;;;;;;;26.12;65.12;102367.19;5053326;28;20021;-86
2023/06/24 06:18:12;;;;;;;3.40;2.60;;;;;;;26.93;63.12;102376.66;5052682;28;20114;-85
2023/06/24 06:20:51;;;;;;;;;;;;;;;27.16;61.96;102374.38;5054658;28;20469;-85
2023/06/24 06:23:17;;;;;;;3.35;2.60;;;;;;;27.02;59.07;102372.56;5053880;28;19912;-85
2023/06/24 06:25:57;;;;;;;2.90;2.50;;;;;;;26.20;60.39;102363.13;5052936;28;20048;-86
2023/06/24 06:28:23;;;;;;;3.40;2.80;;;;;;;25.71;56.05;102377.38;5053370;28;20386;-86
2023/06/24 06:31:03;;;;;;;6.10;4.10;;;;;;;25.03;57.88;102375.66;5054519;28;20029;-86
2023/06/24 06:33:29;;;;;;;5.13;3.17;;;;;;;24.74;60.88;102380.72;5052824;28;20021;-86
2023/06/24 06:35:54;;;;;;;3.53;2.70;;;;;;;24.65;61.01;102379.34;5053325;28;20120;-86
2023/06/24 06:38:19;;;;;;;5.30;2.97;;;;;;;24.61;62.80;102377.75;5053236;28;20028;-86
2023/06/24 06:40:45;;;;;;;2.80;2.50;;;;;;;24.63;61.93;102386.53;5052842;28;20044;-88
2023/06/24 06:43:10;;;;;;;2.60;2.40;;;;;;;24.59;62.44;102377.00;5052993;28;20106;-86
2023/06/24 06:45:35;;;;;;;2.97;2.67;;;;;;;24.62;56.56;102397.22;5053610;28;20112;-89
2023/06/24 06:48:02;;;;;;;3.93;2.63;;;;;;;24.54;62.05;102388.78;5052746;28;20040;-84
2023/06/24 06:50:27;;;;;;;3.38;2.60;;;;;;;24.55;61.14;102387.84;5052209;28;20033;-84
2023/06/24 06:52:52;;;;;;;2.97;2.53;;;;;;;24.60;60.71;102391.13;5052474;28;20354;-84
2023/06/24 06:55:21;;;;;;;2.85;2.55;;;;;;;24.62;60.38;102387.44;5052172;28;20413;-84
2023/06/24 06:57:46;;;;;;;4.18;2.85;;;;;;;24.65;61.42;102391.78;5053235;28;20472;-84
2023/06/24 07:00:12;;;;;;;3.13;2.60;;;;;;;24.69;63.98;102396.00;5051816;28;20021;-84
2023/06/24 07:02:37;;;;;;;3.25;2.72;;;;;;;24.77;61.32;102406.22;5052997;28;20029;-84
2023/06/24 07:05:03;;;;;;;4.30;2.63;;;;;;;24.77;61.67;102406.22;5052564;28;20032;-83
2023/06/24 07:07:28;;;;;;;2.40;2.20;;;;;;;24.86;59.90;102410.22;5052041;28;20539;-84
2023/06/24 07:09:54;;;;;;;5.37;3.57;;;;;;;24.74;52.58;102403.72;5052789;28;20024;-83
2023/06/24 07:12:23;;;;;;;4.93;3.50;;;;;;;24.69;56.71;102411.06;5052361;28;20734;-84
2023/06/24 07:14:48;;;;;;;3.70;3.00;;;;;;;24.63;61.31;102410.41;5051773;28;20027;-84
2023/06/24 07:17:14;;;;;;;2.80;2.47;;;;;;;24.75;58.37;102419.59;5052458;28;20480;-83
2023/06/24 07:19:39;;;;;;;3.90;2.93;;;;;;;24.83;59.35;102420.06;5052942;28;20024;-83
2023/06/24 07:22:05;;;;;;;4.77;3.00;;;;;;;24.91;54.63;102414.34;5052048;28;20112;-82
2023/06/24 07:24:30;;;;;;;4.00;2.70;;;;;;;24.99;60.41;102408.66;5053241;28;20025;-83
2023/06/24 07:26:55;;;;;;;3.43;2.90;;;;;;;24.93;58.85;102408.97;5052185;28;20104;-78
2023/06/24 07:29:21;;;;;;;3.90;3.00;;;;;;;24.90;56.67;102412.63;5051388;28;20025;-83
2023/06/24 07:31:46;;;;;;;2.53;2.33;;;;;;;24.90;58.92;102417.94;5060251;22;20041;-83
2023/06/24 07:34:11;;;;;;;3.87;2.40;;;;;;;25.03;57.66;102415.50;5042519;28;20109;-82
2023/06/24 07:36:37;;;;;;;3.10;2.63;;;;;;;25.16;59.83;102402.47;5031950;28;20017;-83
2023/06/24 07:39:05;;;;;;;3.77;2.70;;;;;;;25.21;59.78;102399.56;5032569;28;20410;-83
2023/06/24 07:41:35;;;;;;;5.60;3.10;;;;;;;25.17;54.71;102405.97;5032657;28;20056;-84
2023/06/24 07:44:00;;;;;;;5.03;3.00;;;;;;;25.09;52.01;102409.00;5032035;28;20492;-83
2023/06/24 07:46:27;;;;;;;4.43;3.07;;;;;;;25.04;54.39;102401.28;5032202;28;20033;-85
2023/06/24 07:48:53;;;;;;;5.05;3.00;;;;;;;25.04;58.64;102408.41;5032459;28;20105;-85
2023/06/24 07:51:18;;;;;;;4.25;2.88;;;;;;;25.08;57.06;102404.63;5031969;28;20100;-88
2023/06/24 07:53:44;;;;;;;4.03;2.80;;;;;;;25.09;58.04;102417.84;5032804;28;20461;-89
2023/06/24 07:56:09;;;;;;;3.13;2.50;;;;;;;25.13;56.66;102395.50;5032242;28;20030;-84
2023/06/24 07:58:35;;;;;;;3.40;2.70;;;;;;;25.24;52.17;102407.34;5031935;28;20053;-81
2023/06/24 08:01:00;;;;;;;5.95;3.72;;;;;;;25.09;54.84;102412.56;5031064;28;20064;-78
2023/06/24 08:03:27;;;;;;;3.83;2.55;;;;;;;25.05;57.28;102405.66;5035510;28;20049;-79
2023/06/24 08:05:52;;;;;;;2.93;2.50;;;;;;;25.23;57.38;102409.16;5052309;28;20029;-79
2023/06/24 08:08:19;;;;;;;2.60;2.40;;;;;;;25.38;56.74;102406.63;5052080;28;20096;-81
2023/06/24 08:10:45;;;;;;;2.33;2.13;;;;;;;25.51;56.89;102405.03;5051545;28;20099;-81
2023/06/24 08:13:10;;;;;;;2.47;2.20;;;;;;;25.59;56.63;102399.31;5045783;28;20021;-82
2023/06/24 08:15:38;;;;;;;2.40;2.20;;;;;;;25.66;56.77;102391.84;5031740;28;20029;-87
2023/06/24 08:18:03;;;;;;;1.98;1.80;;;;;;;25.73;55.33;102398.53;5042516;28;20090;-85
2023/06/24 08:20:31;;;;;;;2.57;2.20;;;;;;;25.70;48.39;102393.41;5052100;28;20473;-84
2023/06/24 08:22:56;;;;;;;1.95;1.75;;;;;;;25.64;54.46;102405.25;5052029;28;20036;-82
2023/06/24 08:25:22;;;;;;;2.37;2.10;;;;;;;25.53;51.95;102397.84;5055495;28;20037;-79
2023/06/24 08:27:47;;;;;;;2.43;2.17;;;;;;;25.47;47.19;102392.88;5032211;28;20105;-77
2023/06/24 08:30:15;;;;;;;2.30;2.10;;;;;;;25.47;55.32;102397.31;5031705;28;20032;-79
2023/06/24 08:32:41;;;;;;;2.10;1.90;;;;;;;25.57;53.50;102393.22;5034125;28;20053;-85
2023/06/24 08:35:07;;;;;;;1.83;1.73;;;;;;;25.66;54.46;102386.53;5032798;28;20038;-87
2023/06/24 08:37:32;;;;;;;2.10;1.90;;;;;;;25.68;51.58;102382.84;5033228;28;20363;-91
2023/06/24 08:39:58;;;;;;;1.93;1.80;;;;;;;25.70;52.77;102383.63;5045242;28;20036;-83
2023/06/24 08:42:24;;;;;;;1.67;1.57;;;;;;;25.78;54.27;102380.53;5047248;28;20048;-84
2023/06/24 08:44:49;;;;;;;1.60;1.50;;;;;;;25.89;53.29;102386.13;5036015;28;20032;-85
2023/06/24 08:47:16;;;;;;;1.10;1.10;;;;;;;26.01;54.09;102378.38;5034986;28;20500;-84
2023/06/24 08:49:51;;;;;;;1.48;1.38;;;;;;;26.14;49.27;102378.56;5052377;28;20432;-84
2023/06/24 08:52:16;;;;;;;1.80;1.70;;;;;;;26.20;51.18;102383.56;5049759;28;20083;-84
2023/06/24 08:54:46;;;;;;;2.10;1.90;;;;;;;26.04;43.77;102376.41;5035678;28;20029;-82
2023/06/24 08:57:14;;;;;;;2.00;1.80;;;;;;;25.96;49.79;102381.31;5052612;28;20041;-82
2023/06/24 08:59:42;;;;;;;2.90;2.00;;;;;;;25.98;49.81;102382.09;5048107;28;20030;-80
2023/06/24 09:02:07;;;;;;;1.70;1.60;;;;;;;26.05;51.10;102378.13;5036767;28;20415;-80
2023/06/24 09:04:33;;;;;;;1.90;1.80;;;;;;;26.11;45.77;102387.59;5040501;28;20025;-80
2023/06/24 09:06:58;;;;;;;2.00;1.80;;;;;;;26.17;50.69;102381.06;5034732;28;20030;-80
2023/06/24 09:09:24;;;;;;;2.00;1.90;;;;;;;26.27;48.15;102381.41;5034722;28;20291;-81
2023/06/24 09:12:00;;;;;;;2.17;1.95;;;;;;;26.28;48.26;102383.13;5037669;28;20021;-81
2023/06/24 09:14:27;;;;;;;1.85;1.75;;;;;;;26.34;46.65;102382.75;5035815;28;20465;-86
2023/06/24 09:17:06;;;;;;;1.80;1.67;;;;;;;26.39;47.77;102374.50;5034986;28;20029;-82
2023/06/24 09:19:39;;;;;;;2.10;1.90;;;;;;;26.46;47.41;102378.53;5055223;28;20033;-84
2023/06/24 09:22:08;;;;;;;1.73;1.63;;;;;;;26.48;48.15;102374.81;5051969;28;20013;-84
2023/06/24 09:24:35;;;;;;;1.80;1.70;;;;;;;26.60;46.47;102375.88;5052641;28;20037;-83
2023/06/24 09:27:01;;;;;;;1.90;1.80;;;;;;;26.67;48.01;102369.25;5045986;28;20082;-85
2023/06/24 09:29:29;;;;;;;;;;;;;;;26.78;48.04;102362.47;5043387;28;20039;-84
2023/06/24 09:31:59;;;;;;;1.90;1.77;;;;;;;26.88;48.09;102363.63;5044898;28;19921;-85
2023/06/24 09:34:25;;;;;;;1.90;1.60;;;;;;;26.97;47.58;102352.41;5034722;28;20053;-87
2023/06/24 09:36:53;;;;;;;1.65;1.55;;;;;;;27.04;47.28;102349.34;5034925;28;20029;-88
2023/06/24 09:39:18;;;;;;;1.40;1.30;;;;;;;27.12;43.87;102349.75;5034986;28;20431;-86
2023/06/24 09:41:50;;;;;;;2.85;1.88;;;;;;;27.18;45.52;102351.16;5048204;28;20053;-91
2023/06/24 09:44:16;;;;;;;4.68;2.08;;;;;;;27.16;44.87;102334.41;5036439;28;20121;-88
2023/06/24 09:46:43;;;;;;;1.63;1.52;;;;;;;27.28;47.64;102358.47;5035359;28;20041;-81
2023/06/24 09:49:08;;;;;;;1.60;1.50;;;;;;;27.40;42.61;102346.19;5033888;28;20492;-85
2023/06/24 09:51:37;;;;;;;;;;;;;;;27.51;42.87;102342.03;5034894;28;20021;-88
2023/06/24 09:54:05;;;;;;;3.38;2.20;;;;;;;27.48;43.98;102336.88;5034803;28;20058;-87
2023/06/24 09:56:32;;;;;;;2.25;2.00;;;;;;;27.52;44.62;102335.75;5034487;28;20033;-86
2023/06/24 09:58:58;;;;;;;2.33;2.00;;;;;;;27.60;44.22;102333.44;5034184;28;20030;-85
2023/06/24 10:01:23;;;;;;;;;;;;;;;27.62;44.76;102342.19;5034465;28;20084;-85
2023/06/24 10:03:49;;;;;;;;;;;;;;;27.74;44.58;102340.53;5034380;28;19913;-82
2023/06/24 10:06:14;;;;;;;1.70;1.60;;;;;;;27.80;43.75;102341.94;5034048;28;19917;-79
2023/06/24 10:08:39;;;;;;;;;;;;;;;27.89;43.35;102350.19;5034722;28;20033;-79
2023/06/24 10:11:05;;;;;;;1.70;1.60;;;;;;;28.01;44.74;102345.00;5034287;28;20004;-81
2023/06/24 10:13:30;;;;;;;1.42;1.35;;;;;;;28.09;43.74;102339.22;5033354;28;20037;-89
2023/06/24 10:15:56;;;;;;;;;;;;;;;28.12;44.42;102338.97;5034338;28;20018;-86
2023/06/24 10:22:04;;;;;;;1.83;1.73;;;;;;;28.22;43.54;102339.22;5112368;22;20045;-86
2023/06/24 10:24:41;;;;;;;1.70;1.52;;;;;;;28.26;45.23;102330.06;5052732;28;20083;-85
2023/06/24 10:27:22;;;;;;;1.60;1.50;;;;;;;28.32;43.62;102319.81;5053554;28;20025;-86
2023/06/24 10:30:23;;;;;;;2.25;2.05;;;;;;;28.43;39.83;102331.59;5053626;28;20483;-86
2023/06/24 10:32:56;;;;;;;1.95;1.67;;;;;;;28.43;43.94;102324.44;5054246;22;20049;-86
2023/06/24 10:35:32;;;;;;;1.60;1.50;;;;;;;28.44;43.10;102318.13;5053666;28;20058;-87
2023/06/24 10:38:10;;;;;;;1.30;1.20;;;;;;;28.61;44.16;102321.44;5053174;28;20029;-87
2023/06/24 10:40:54;;;;;;;1.30;1.20;;;;;;;28.67;41.89;102318.34;5053476;28;20037;-85
2023/06/24 10:43:32;;;;;;;2.97;1.60;;;;;;;28.66;41.96;102319.31;5053153;28;20029;-86
2023/06/24 10:45:58;;;;;;;1.67;1.42;;;;;;;28.77;42.54;102314.09;5052706;28;20017;-86
2023/06/24 10:48:36;;;;;;;1.95;1.73;;;;;;;28.79;41.48;102300.63;5053124;28;20521;-87
2023/06/24 10:51:01;;;;;;;1.80;1.70;;;;;;;28.85;40.70;102310.03;5052890;28;20036;-86
2023/06/24 10:53:30;;;;;;;;;;;;;;;28.88;43.61;102323.19;5052288;28;20029;-85
2023/06/24 10:56:11;;;;;;;1.90;1.80;;;;;;;28.93;42.94;102315.72;5053096;28;19948;-86
2023/06/24 11:01:32;;;;;;;2.13;2.00;;;;;;;29.03;39.67;102308.75;5052246;28;20155;-87
2023/06/24 11:04:23;;;;;;;2.30;2.10;;;;;;;29.00;41.93;102298.28;5053032;28;20032;-87
2023/06/24 11:07:02;;;;;;;1.88;1.77;;;;;;;29.11;42.76;102300.16;5052628;28;20036;-88
2023/06/24 11:10:06;;;;;;;1.92;1.83;;;;;;;29.23;42.35;102296.59;5053500;28;20027;-86
2023/06/24 11:12:58;;;;;;;1.90;1.70;;;;;;;29.36;37.36;102304.66;5052815;28;20033;-85
2023/06/24 11:15:32;;;;;;;1.75;1.65;;;;;;;29.47;41.79;102295.81;5052147;28;20086;-86
2023/06/24 11:18:04;;;;;;;2.13;1.92;;;;;;;29.48;37.57;102289.50;5053259;28;20029;-87
2023/06/24 11:20:48;;;;;;;1.85;1.75;;;;;;;29.56;39.29;102305.00;5051779;28;20032;-86
2023/06/24 11:23:14;;;;;;;1.67;1.57;;;;;;;29.59;40.85;102291.41;5052295;28;20029;-87
2023/06/24 11:29:27;;;;;;;1.50;1.40;;;;;;;29.95;41.48;102294.13;5022708;28;19920;-86
2023/06/24 11:31:56;;;;;;;1.20;1.20;;;;;;;29.99;39.93;102280.41;5051860;28;20048;-86
2023/06/24 11:34:24;;;;;;;3.53;2.72;;;;;;;29.80;36.65;102280.06;5052311;28;20031;-87
2023/06/24 11:36:50;;;;;;;3.42;2.33;;;;;;;29.80;40.21;102274.72;5052602;28;20074;-85
2023/06/24 11:39:33;;;;;;;1.98;1.88;;;;;;;29.97;40.08;102279.66;5064019;22;20053;-87
2023/06/24 11:42:08;;;;;;;2.00;1.90;;;;;;;30.06;39.85;102269.25;5065243;28;20036;-87